Time;durP1;ratioP1;P1;durP2;ratioP2;P2;SDS_P1;SDS_P2;PMS_P1;PMS_P2;Temp;Humidity;BMP_temperature;BMP_pressure;BME280_temperature;BME280_humidity;BME280_pressure;Samples;Min_cycle;Max_cycle;Signal;HPM_P1;HPM_P2
2022/07/12 00:00:48;;;;;;;;;;;;;;;18.42;56.64;100963.50;4959018;29;1981;-56
2022/07/12 00:03:14;;;;;;;;;;;;;;;17.14;59.31;100960.88;4958270;29;1125;-54
2022/07/12 00:05:39;;;;;;;;;;;;;;;16.25;60.88;100965.25;4959070;28;1094;-54
2022/07/12 00:08:06;;;;;;;;;;;;;;;19.00;56.15;100956.63;4961807;28;1071;-55
2022/07/12 00:10:32;;;;;;;;;;;;;;;15.36;63.06;100959.41;4960848;28;904;-53
2022/07/12 00:12:57;;;;;;;;;;;;;;;16.89;55.94;100965.25;4958476;29;975;-55
2022/07/12 00:15:23;;;;;;;;;;;;;;;17.15;53.00;100957.84;4962608;28;995;-52
2022/07/12 00:17:48;;;;;;;;;;;;;;;17.23;51.28;100956.50;4958302;29;963;-53
2022/07/12 00:20:14;;;;;;;;;;;;;;;17.21;50.47;100958.72;4961154;28;1923;-53
2022/07/12 00:22:39;;;;;;;;;;;;;;;17.20;49.59;100954.31;4958208;29;995;-54
2022/07/12 00:25:05;;;;;;;;;;;;;;;17.92;51.59;100965.28;4958078;29;1154;-54
2022/07/12 00:27:30;;;;;;;;;;;;;;;17.53;51.12;100965.84;4958256;29;995;-54
2022/07/12 00:29:56;;;;;;;;;;;;;;;17.40;50.05;100957.06;4958311;29;1149;-54
2022/07/12 00:32:21;;;;;;;;;;;;;;;17.27;49.41;100957.59;4964982;28;991;-54
2022/07/12 00:34:47;;;;;;;;;;;;;;;17.23;48.65;100960.06;4958114;29;1007;-54
2022/07/12 00:37:12;;;;;;;;;;;;;;;17.97;50.27;100958.97;4963673;28;1022;-50
2022/07/12 00:39:37;;;;;;;;;;;;;;;17.48;50.05;100961.19;4958037;29;1903;-55
2022/07/12 00:42:03;;;;;;;;;;;;;;;17.35;49.19;100954.31;4957756;29;1015;-53
2022/07/12 00:44:30;;;;;;;;;;;;;;;17.33;48.52;100955.69;4957864;29;1070;-53
2022/07/12 00:46:57;;;;;;;;;;;;;;;17.65;49.00;100960.09;4957539;29;994;-53
2022/07/12 00:49:22;;;;;;;;;;;;;;;17.75;49.72;100955.41;4957980;29;1266;-54
2022/07/12 00:51:48;;;;;;;;;;;;;;;17.55;49.32;100955.41;4957892;29;1027;-53
2022/07/12 00:54:14;;;;;;;;;;;;;;;17.38;48.33;100958.44;4956236;29;1149;-54
2022/07/12 00:56:40;;;;;;;;;;;;;;;17.43;47.64;100959.28;4959759;28;1058;-52
2022/07/12 00:59:05;;;;;;;;;;;;;;;17.25;47.59;100957.03;4941420;29;1981;-55
2022/07/12 01:01:30;;;;;;;;;;;;;;;17.27;47.05;100955.69;4957500;29;1229;-55
2022/07/12 01:03:56;;;;;;;;;;;;;;;17.22;46.97;100957.59;4958109;29;999;-56
2022/07/12 01:06:22;;;;;;;;;;;;;;;17.97;48.42;100957.03;4957419;29;1149;-56
2022/07/12 01:08:47;;;;;;;;;;;;;;;15.21;56.00;100964.75;4957784;29;1035;-56
2022/07/12 01:11:13;;;;;;;;;;;;;;;17.72;53.25;100955.94;4957566;28;951;-54
2022/07/12 01:13:38;;;;;;;;;;;;;;;19.00;51.32;100951.13;4961660;28;991;-56
2022/07/12 01:16:05;;;;;;;;;;;;;;;15.12;60.29;100960.81;4957641;29;1101;-56
2022/07/12 01:18:30;;;;;;;;;;;;;;;18.16;54.49;100964.69;4957407;29;1907;-56
2022/07/12 01:20:55;;;;;;;;;;;;;;;16.00;59.33;100959.63;4959491;28;1074;-56
2022/07/12 01:23:22;;;;;;;;;;;;;;;17.06;58.13;100967.75;4961234;29;1137;-56
2022/07/12 01:25:47;;;;;;;;;;;;;;;19.24;52.86;100959.50;4955018;29;1055;-56
2022/07/12 01:28:13;;;;;;;;;;;;;;;14.92;63.01;100959.53;4961797;29;1035;-56
2022/07/12 01:30:40;;;;;;;;;;;;;;;18.52;55.80;100961.81;4944128;29;1001;-55
2022/07/12 01:33:05;;;;;;;;;;;;;;;17.01;58.58;100963.09;4961839;29;979;-54
2022/07/12 01:35:30;;;;;;;;;;;;;;;16.23;58.18;100955.66;4961026;29;1476;-55
2022/07/12 01:37:56;;;;;;;;;;;;;;;17.12;52.93;100954.84;4944262;29;1015;-56
2022/07/12 01:40:22;;;;;;;;;;;;;;;17.18;51.19;100951.00;4954998;28;1907;-54
2022/07/12 01:42:47;;;;;;;;;;;;;;;17.14;50.41;100952.63;4963358;28;1065;-55
2022/07/12 01:45:13;;;;;;;;;;;;;;;17.18;49.51;100956.50;4960599;29;1003;-55
2022/07/12 01:47:38;;;;;;;;;;;;;;;17.91;51.39;100958.16;4961071;29;935;-54
2022/07/12 01:50:05;;;;;;;;;;;;;;;15.33;58.48;100962.69;4960709;29;1027;-54
2022/07/12 01:52:30;;;;;;;;;;;;;;;17.33;56.10;100962.00;4963553;28;1162;-54
2022/07/12 01:54:56;;;;;;;;;;;;;;;18.76;53.92;100965.56;4945081;29;999;-55
2022/07/12 01:57:21;;;;;;;;;;;;;;;14.86;62.55;100963.31;4947656;29;984;-55
2022/07/12 01:59:47;;;;;;;;;;;;;;;18.44;56.11;100966.00;4960492;29;1981;-54
2022/07/12 02:02:12;;;;;;;;;;;;;;;16.36;59.91;100963.38;4960873;29;971;-54
2022/07/12 02:04:37;;;;;;;;;;;;;;;16.91;60.35;100958.41;4945278;29;1397;-55
2022/07/12 02:07:03;;;;;;;;;;;;;;;19.20;54.68;100963.13;4960426;29;1046;-55
2022/07/12 02:09:29;;;;;;;;;;;;;;;15.00;62.80;100969.22;4960693;29;1153;-55
2022/07/12 02:11:54;;;;;;;;;;;;;;;18.34;57.55;100972.34;4960577;29;878;-54
2022/07/12 02:14:20;;;;;;;;;;;;;;;17.28;58.59;100956.53;4960762;29;1115;-55
2022/07/12 02:16:46;;;;;;;;;;;;;;;15.97;59.64;100966.47;4964434;28;1146;-54
2022/07/12 02:19:12;;;;;;;;;;;;;;;17.03;53.50;100960.88;4960838;29;1910;-55
2022/07/12 02:21:37;;;;;;;;;;;;;;;17.16;51.49;100959.50;4960945;29;1136;-55
2022/07/12 02:24:03;;;;;;;;;;;;;;;17.17;50.52;100963.09;4959797;29;945;-55
2022/07/12 02:26:28;;;;;;;;;;;;;;;17.71;51.42;100968.06;4960659;29;1077;-55
2022/07/12 02:28:53;;;;;;;;;;;;;;;17.68;52.20;100967.78;4960596;29;838;-56
2022/07/12 02:31:19;;;;;;;;;;;;;;;17.47;50.79;100964.22;4960103;28;1002;-57
2022/07/12 02:33:44;;;;;;;;;;;;;;;17.36;49.97;100972.47;4960520;28;1220;-57
2022/07/12 02:36:10;;;;;;;;;;;;;;;17.35;48.94;100970.81;4960028;28;1242;-57
2022/07/12 02:38:35;;;;;;;;;;;;;;;17.23;48.84;100960.06;4959776;29;1903;-56
2022/07/12 02:41:01;;;;;;;;;;;;;;;17.23;48.26;100973.00;4959933;29;1117;-56
2022/07/12 02:43:27;;;;;;;;;;;;;;;17.18;52.55;100971.06;4960265;28;987;-56
2022/07/12 02:45:52;;;;;;;;;;;;;;;16.22;57.51;100975.94;4965351;28;968;-60
2022/07/12 02:48:18;;;;;;;;;;;;;;;18.90;53.60;100979.56;4959569;29;866;-58
2022/07/12 02:50:43;;;;;;;;;;;;;;;15.46;60.76;100974.28;4959773;29;1023;-60
2022/07/12 02:53:09;;;;;;;;;;;;;;;17.37;57.77;100973.28;4959856;29;1200;-57
2022/07/12 02:55:35;;;;;;;;;;;;;;;18.59;54.34;100979.69;4959880;29;991;-58
2022/07/12 02:58:01;;;;;;;;;;;;;;;15.44;62.79;100982.75;4962720;28;1201;-57
2022/07/12 03:00:26;;;;;;;;;;;;;;;18.81;55.59;100978.47;4959042;29;1962;-58
2022/07/12 03:02:52;;;;;;;;;;;;;;;16.12;60.90;100984.94;4959851;29;1168;-57
2022/07/12 03:05:17;;;;;;;;;;;;;;;17.24;59.53;100985.66;4960052;29;1058;-58
2022/07/12 03:07:43;;;;;;;;;;;;;;;19.24;54.54;100981.53;4959748;29;1118;-59
2022/07/12 03:10:08;;;;;;;;;;;;;;;15.13;63.82;100984.41;4959588;29;964;-58
2022/07/12 03:12:34;;;;;;;;;;;;;;;16.96;54.80;100982.28;4959441;29;876;-58
2022/07/12 03:15:00;;;;;;;;;;;;;;;17.18;52.09;100993.06;4959668;29;1022;-58
2022/07/12 03:17:25;;;;;;;;;;;;;;;17.22;50.60;100982.31;4959544;29;1048;-57
2022/07/12 03:19:51;;;;;;;;;;;;;;;17.15;49.87;100990.00;4959589;29;1914;-57
2022/07/12 03:22:17;;;;;;;;;;;;;;;17.16;49.47;100991.66;4959180;29;981;-59
2022/07/12 03:24:42;;;;;;;;;;;;;;;18.15;51.78;100998.84;4961323;28;912;-58
2022/07/12 03:27:07;;;;;;;;;;;;;;;17.64;51.24;100995.00;4959348;29;1509;-59
2022/07/12 03:29:33;;;;;;;;;;;;;;;17.40;50.35;101001.06;4959263;29;1074;-58
2022/07/12 03:31:58;;;;;;;;;;;;;;;17.35;49.40;100998.28;4959038;28;1177;-57
2022/07/12 03:34:24;;;;;;;;;;;;;;;17.29;48.70;100996.63;4964847;28;1182;-58
2022/07/12 03:36:49;;;;;;;;;;;;;;;17.27;48.21;100999.66;4958391;28;1370;-59
2022/07/12 03:39:15;;;;;;;;;;;;;;;17.13;48.14;100997.72;4959166;29;1910;-60
2022/07/12 03:41:40;;;;;;;;;;;;;;;17.14;47.80;101005.69;4959144;29;1149;-57
2022/07/12 03:44:08;;;;;;;;;;;;;;;18.30;49.79;101005.13;4958392;28;1074;-59
2022/07/12 03:46:34;;;;;;;;;;;;;;;15.11;59.77;101009.31;4959031;29;1019;-60
2022/07/12 03:48:59;;;;;;;;;;;;;;;18.61;53.21;101002.25;4958427;29;1067;-63
2022/07/12 03:51:25;;;;;;;;;;;;;;;16.39;58.63;101009.50;4962199;28;1504;-60
2022/07/12 03:53:50;;;;;;;;;;;;;;;16.29;57.28;101003.16;4958437;28;1211;-59
2022/07/12 03:59:00;;;;;;;;;;;;;;;14.75;62.87;100997.13;4957079;28;2404;-60
2022/07/12 04:01:25;;;;;;;;;;;;;;;18.37;55.99;101004.81;4951295;29;1884;-61
2022/07/12 04:03:50;;;;;;;;;;;;;;;16.49;59.67;101005.97;4957867;29;2033;-58
2022/07/12 04:06:16;;;;;;;;;;;;;;;16.75;60.13;101008.84;4956227;28;2226;-58
2022/07/12 04:08:41;;;;;;;;;;;;;;;19.16;54.63;101012.47;4959385;28;2309;-58
2022/07/12 04:11:07;;;;;;;;;;;;;;;14.99;62.69;101006.69;4953054;29;1837;-64
2022/07/12 04:13:33;;;;;;;;;;;;;;;17.88;58.07;101008.19;4959965;28;2105;-65
2022/07/12 04:15:58;;;;;;;;;;;;;;;17.18;58.91;101005.94;4963107;28;995;-64
2022/07/12 04:18:24;;;;;;;;;;;;;;;16.40;62.23;101011.16;4958391;28;1125;-63
2022/07/12 04:20:49;;;;;;;;;;;;;;;19.18;55.61;101020.44;4958662;28;1906;-65
2022/07/12 04:23:15;;;;;;;;;;;;;;;15.49;62.27;101009.41;4962959;28;1578;-66
2022/07/12 04:25:40;;;;;;;;;;;;;;;16.73;56.31;101011.84;4960341;28;1054;-65
2022/07/12 04:28:06;;;;;;;;;;;;;;;17.13;53.07;101016.94;4962630;28;1161;-63
2022/07/12 04:30:31;;;;;;;;;;;;;;;17.14;51.51;101016.69;4961180;28;1054;-64
2022/07/12 04:32:56;;;;;;;;;;;;;;;17.13;50.61;101019.69;4960751;28;1050;-64
2022/07/12 04:35:22;;;;;;;;;;;;;;;17.23;49.74;101019.72;4959825;28;1121;-63
2022/07/12 04:37:47;;;;;;;;;;;;;;;17.14;49.55;101013.09;4958219;29;1078;-64
2022/07/12 04:40:13;;;;;;;;;;;;;;;17.10;49.39;101024.63;4958927;28;1985;-64
2022/07/12 04:42:38;;;;;;;;;;;;;;;17.12;48.73;101026.28;4958250;28;1176;-62
2022/07/12 04:45:04;;;;;;;;;;;;;;;17.09;48.79;101014.72;4958499;29;2554;-63
2022/07/12 04:47:29;;;;;;;;;;;;;;;18.10;50.82;101025.25;4962751;28;1034;-62
2022/07/12 04:49:55;;;;;;;;;;;;;;;17.48;50.58;101015.34;4957830;29;1259;-61
2022/07/12 04:52:20;;;;;;;;;;;;;;;17.31;49.92;101024.69;4958359;28;1010;-60
2022/07/12 04:54:46;;;;;;;;;;;;;;;17.38;48.86;101021.66;4958166;29;1085;-58
2022/07/12 04:57:12;;;;;;;;;;;;;;;17.25;48.86;101023.84;4958066;29;967;-64
2022/07/12 04:59:37;;;;;;;;;;;;;;;17.22;48.36;101018.06;4957732;28;1902;-64
2022/07/12 05:02:03;;;;;;;;;;;;;;;17.74;49.94;101022.50;4957787;28;1070;-64
2022/07/12 05:04:31;;;;;;;;;;;;;;;17.43;49.89;101028.00;4957450;29;975;-61
2022/07/12 05:06:56;;;;;;;;;;;;;;;17.49;48.96;101033.47;4957540;29;1007;-62
2022/07/12 05:09:22;;;;;;;;;;;;;;;17.33;48.53;101021.66;4962695;28;991;-59
2022/07/12 05:11:47;;;;;;;;;;;;;;;17.34;48.10;101035.13;4957607;29;983;-60
2022/07/12 05:14:13;;;;;;;;;;;;;;;17.33;47.60;101030.72;4957501;29;2595;-59
2022/07/12 05:16:38;;;;;;;;;;;;;;;18.11;49.09;101035.16;4963435;28;1185;-59
2022/07/12 05:19:04;;;;;;;;;;;;;;;14.93;57.57;101023.31;4957454;28;1899;-59
2022/07/12 05:21:29;;;;;;;;;;;;;;;18.09;53.48;101029.09;4957732;28;1252;-60
2022/07/12 05:23:54;;;;;;;;;;;;;;;18.32;53.77;101018.59;4958090;28;1018;-60
2022/07/12 05:26:20;;;;;;;;;;;;;;;15.59;59.57;101025.09;4958891;28;1083;-59
2022/07/12 05:28:45;;;;;;;;;;;;;;;17.22;54.08;101029.88;4962311;28;959;-58
2022/07/12 05:31:11;;;;;;;;;;;;;;;16.23;58.18;101026.97;4961900;28;1019;-58
2022/07/12 05:33:36;;;;;;;;;;;;;;;17.09;58.18;101033.16;4960678;28;1129;-59
2022/07/12 05:36:02;;;;;;;;;;;;;;;19.31;53.70;101028.09;4957266;28;1102;-63
2022/07/12 05:38:27;;;;;;;;;;;;;;;15.22;62.18;101023.91;4959233;28;1145;-61
2022/07/12 05:40:53;;;;;;;;;;;;;;;18.18;56.96;101026.59;4957323;28;1914;-61
2022/07/12 05:43:18;;;;;;;;;;;;;;;17.81;57.27;101024.16;4956570;28;2599;-60
2022/07/12 05:45:44;;;;;;;;;;;;;;;15.77;60.95;101026.59;4957540;28;1253;-60
2022/07/12 05:48:09;;;;;;;;;;;;;;;17.00;53.89;101027.34;4957397;28;1074;-60
2022/07/12 05:50:34;;;;;;;;;;;;;;;17.21;51.77;101022.72;4957035;28;1052;-64
2022/07/12 05:55:44;;;;;;;;;;;;;;;18.27;51.22;101022.19;4957345;28;1109;-61
2022/07/12 05:58:10;;;;;;;;;;;;;;;17.99;52.11;101031.84;4957939;28;1188;-62
2022/07/12 06:00:36;;;;;;;;;;;;;;;17.84;52.78;101027.19;4955862;28;1918;-62
2022/07/12 06:03:01;;;;;;;;;;;;;;;17.78;52.95;101031.88;4957772;28;1006;-62
2022/07/12 06:05:27;;;;;;;;;;;;;;;17.72;53.29;101024.69;4957328;28;1022;-61
2022/07/12 06:07:52;;;;;;;;;;;;;;;17.62;53.35;101027.44;4960854;28;1109;-60
2022/07/12 06:10:18;;;;;;;;;;;;;;;17.59;53.55;101030.75;4961194;28;963;-62
2022/07/12 06:12:43;;;;;;;;;;;;;;;17.52;53.89;101024.72;4960812;29;991;-63
2022/07/12 06:15:09;;;;;;;;;;;;;;;17.49;53.95;101030.72;4955494;28;2690;-60
2022/07/12 06:17:34;;;;;;;;;;;;;;;17.45;54.33;101036.78;4962465;28;975;-60
2022/07/12 06:20:00;;;;;;;;;;;;;;;17.39;54.55;101029.63;4962359;28;1973;-59
2022/07/12 06:22:25;;;;;;;;;;;;;;;17.32;54.50;101031.84;4960744;29;1077;-61
2022/07/12 06:24:51;;;;;;;;;;;;;;;17.28;54.64;101028.78;4960367;28;1074;-62
2022/07/12 06:27:16;;;;;;;;;;;;;;;17.24;54.96;101032.38;4960159;29;1026;-61
2022/07/12 06:29:47;;;;;;;;;;;;;;;17.21;54.75;101032.91;4960192;28;1208;-63
2022/07/12 06:32:13;;;;;;;;;;;;;;;17.22;54.90;101029.03;4957933;28;922;-64
2022/07/12 06:34:39;;;;;;;;;;;;;;;17.15;55.00;101025.75;4960526;29;1031;-60
2022/07/12 06:37:07;;;;;;;;;;;;;;;17.16;55.21;101021.91;4959959;28;1149;-59
2022/07/12 06:39:33;;;;;;;;;;;;;;;17.09;55.33;101025.72;4960336;29;1988;-59
2022/07/12 06:41:59;;;;;;;;;;;;;;;17.06;55.31;101026.25;4959873;28;1193;-58
2022/07/12 06:44:24;;;;;;;;;;;;;;;17.08;55.36;101017.75;4958607;28;2703;-60
2022/07/12 06:46:49;;;;;;;;;;;;;;;17.03;55.49;101024.06;4959891;28;1050;-58
2022/07/12 06:49:15;;;;;;;;;;;;;;;16.97;55.50;101022.41;4964008;28;1019;-60
2022/07/12 06:51:40;;;;;;;;;;;;;;;16.95;55.42;101018.28;4960149;28;1121;-60
2022/07/12 06:54:06;;;;;;;;;;;;;;;16.95;55.61;101018.28;4942904;29;1240;-60
2022/07/12 06:56:32;;;;;;;;;;;;;;;16.94;55.55;101014.69;4960299;29;1173;-63
2022/07/12 06:58:57;;;;;;;;;;;;;;;16.86;55.75;101013.28;4959628;28;1969;-61
2022/07/12 07:01:22;;;;;;;;;;;;;;;16.90;55.58;101011.66;4959132;28;1066;-62
2022/07/12 07:03:48;;;;;;;;;;;;;;;16.85;55.85;101003.38;4959749;28;1216;-61
2022/07/12 07:06:13;;;;;;;;;;;;;;;16.84;55.71;101006.38;4959667;29;1023;-62
2022/07/12 07:08:39;;;;;;;;;;;;;;;16.79;55.98;101009.97;4960003;28;955;-60
2022/07/12 07:11:04;;;;;;;;;;;;;;;16.73;55.84;101006.38;4959066;28;1045;-59
2022/07/12 07:13:30;;;;;;;;;;;;;;;16.80;55.77;101008.03;4959851;29;991;-60
2022/07/12 07:15:55;;;;;;;;;;;;;;;16.74;55.84;100998.94;4959523;28;994;-61
2022/07/12 07:18:21;;;;;;;;;;;;;;;16.74;55.83;100996.19;4958052;28;1061;-60
2022/07/12 07:20:46;;;;;;;;;;;;;;;16.71;56.05;100994.81;4959783;28;1911;-59
2022/07/12 07:23:16;;;;;;;;;;;;;;;16.68;56.01;100992.59;4959604;29;1066;-57
2022/07/12 07:25:42;;;;;;;;;;;;;;;16.72;55.90;100992.91;4958776;28;1085;-58
2022/07/12 07:28:07;;;;;;;;;;;;;;;16.65;55.78;100993.16;4959436;28;1164;-59
2022/07/12 07:33:17;;;;;;;;;;;;;;;16.63;55.85;100995.31;4959114;28;1010;-59
2022/07/12 07:35:43;;;;;;;;;;;;;;;16.62;56.13;101003.84;4961050;28;1074;-57
2022/07/12 07:38:09;;;;;;;;;;;;;;;16.62;55.86;100995.59;4959147;29;1077;-57
2022/07/12 07:40:35;;;;;;;;;;;;;;;16.56;56.07;101001.09;4958905;28;1914;-57
2022/07/12 07:43:00;;;;;;;;;;;;;;;16.54;56.12;100997.78;4959297;28;1094;-58
2022/07/12 07:45:26;;;;;;;;;;;;;;;16.57;55.81;100996.41;4959379;28;971;-60
2022/07/12 07:47:51;;;;;;;;;;;;;;;16.52;56.07;100999.13;4958890;29;1015;-60
2022/07/12 07:50:17;;;;;;;;;;;;;;;16.55;55.90;101009.56;4958731;28;1095;-61
2022/07/12 07:52:42;;;;;;;;;;;;;;;16.47;55.96;101002.69;4959224;28;971;-61
2022/07/12 07:55:08;;;;;;;;;;;;;;;16.51;55.92;100997.47;4958777;28;1003;-58
2022/07/12 07:57:33;;;;;;;;;;;;;;;16.48;56.19;101000.75;4958509;28;1054;-58
2022/07/12 07:59:58;;;;;;;;;;;;;;;16.50;55.94;101009.56;4942785;29;1971;-58
2022/07/12 08:02:24;;;;;;;;;;;;;;;16.42;56.29;101011.72;4958098;28;1137;-58
2022/07/12 08:04:50;;;;;;;;;;;;;;;16.42;56.42;101006.25;4958589;29;1089;-58
2022/07/12 08:07:16;;;;;;;;;;;;;;;16.47;56.21;101010.09;4958456;28;1049;-57
2022/07/12 08:09:41;;;;;;;;;;;;;;;16.41;56.13;100993.59;4958556;29;1074;-57
2022/07/12 08:12:07;;;;;;;;;;;;;;;16.45;56.08;101004.84;4958245;28;975;-60
2022/07/12 08:14:32;;;;;;;;;;;;;;;16.42;56.16;100999.91;4962568;28;1160;-65
2022/07/12 08:16:58;;;;;;;;;;;;;;;16.40;56.08;101002.09;4958313;28;1067;-58
2022/07/12 08:19:23;;;;;;;;;;;;;;;16.42;56.30;100995.25;4961137;28;1906;-59
2022/07/12 08:21:48;;;;;;;;;;;;;;;16.41;56.03;101003.72;4958190;29;1034;-58
2022/07/12 08:24:14;;;;;;;;;;;;;;;16.39;56.22;100995.78;4958125;28;1122;-56
2022/07/12 08:26:40;;;;;;;;;;;;;;;16.34;56.33;100993.03;4958129;28;959;-59
2022/07/12 08:29:05;;;;;;;;;;;;;;;16.29;56.29;100994.91;4958313;28;1007;-59
2022/07/12 08:31:31;;;;;;;;;;;;;;;16.32;56.25;100988.88;4960480;28;1007;-61
2022/07/12 08:33:56;;;;;;;;;;;;;;;16.32;56.36;100989.69;4957852;29;1003;-60
2022/07/12 08:36:21;;;;;;;;;;;;;;;16.30;56.45;100989.16;4958381;28;991;-60
2022/07/12 08:38:47;;;;;;;;;;;;;;;16.34;56.36;100990.28;4957541;29;1963;-60
2022/07/12 08:41:13;;;;;;;;;;;;;;;16.35;56.55;100978.19;4957703;29;1360;-58
2022/07/12 08:43:39;;;;;;;;;;;;;;;16.35;56.80;100993.84;4958409;28;971;-58
2022/07/12 08:46:08;;;;;;;;;;;;;;;16.34;56.86;101004.00;4957902;28;1014;-58
2022/07/12 08:48:34;;;;;;;;;;;;;;;16.32;56.89;100997.94;4957915;28;1042;-59
2022/07/12 08:51:02;;;;;;;;;;;;;;;16.32;56.80;100995.19;4957606;28;1177;-58
2022/07/12 08:53:27;;;;;;;;;;;;;;;16.25;56.94;100984.44;4957605;29;1397;-57
2022/07/12 08:55:53;;;;;;;;;;;;;;;16.30;56.80;100985.56;4959762;28;1125;-57
2022/07/12 08:58:18;;;;;;;;;;;;;;;16.23;56.81;100974.84;4957994;28;1010;-57
2022/07/12 09:00:44;;;;;;;;;;;;;;;16.30;56.68;100974.59;4958204;28;1906;-58
2022/07/12 09:03:12;;;;;;;;;;;;;;;16.24;56.76;100979.22;4957162;28;909;-57
2022/07/12 09:05:37;;;;;;;;;;;;;;;16.20;56.81;100969.88;4957896;28;1212;-58
2022/07/12 09:08:03;;;;;;;;;;;;;;;16.18;56.79;100978.38;4957985;29;1113;-57
2022/07/12 09:10:29;;;;;;;;;;;;;;;16.21;56.53;100979.75;4957714;29;835;-57
2022/07/12 09:12:54;;;;;;;;;;;;;;;16.21;56.62;100977.84;4944907;28;1185;-57
2022/07/12 09:15:21;;;;;;;;;;;;;;;16.19;56.82;100969.06;4957405;29;882;-56
2022/07/12 09:17:57;;;;;;;;;;;;;;;16.17;56.63;100960.28;4957584;28;1168;-58
2022/07/12 09:20:26;;;;;;;;;;;;;;;16.18;56.70;100964.66;4957595;28;1906;-58
2022/07/12 09:22:55;;;;;;;;;;;;;;;16.13;56.60;100961.06;4959459;28;1412;-57
2022/07/12 09:25:23;;;;;;;;;;;;;;;16.18;56.37;100966.59;4958792;28;991;-58
2022/07/12 09:27:58;;;;;;;;;;;;;;;16.12;56.94;100971.22;4940164;28;1349;-58
2022/07/12 09:30:28;;;;;;;;;;;;;;;16.14;56.61;100973.69;4949970;28;1293;-58
2022/07/12 09:36:06;;;;;;;;;;;;;;;16.10;56.70;100964.34;4943038;29;1086;-58
2022/07/12 09:38:38;;;;;;;;;;;;;;;16.12;56.75;100960.25;4956747;28;1129;-58
2022/07/12 09:41:04;;;;;;;;;;;;;;;16.11;56.63;100968.75;4958155;28;1983;-58
2022/07/12 09:43:30;;;;;;;;;;;;;;;16.10;56.86;100964.34;4943296;29;1134;-58
2022/07/12 09:46:13;;;;;;;;;;;;;;;16.12;56.70;100962.13;4960305;28;1065;-59
2022/07/12 09:48:38;;;;;;;;;;;;;;;16.11;56.70;100966.00;4960927;28;963;-61
2022/07/12 09:51:08;;;;;;;;;;;;;;;16.14;56.45;100959.97;4943838;29;1358;-59
2022/07/12 09:53:42;;;;;;;;;;;;;;;16.09;56.82;100952.56;4956687;28;1114;-58
2022/07/12 09:56:13;;;;;;;;;;;;;;;16.08;56.64;100954.44;4959556;29;1467;-59
2022/07/12 09:58:57;;;;;;;;;;;;;;;16.07;56.41;100952.81;4959243;28;1171;-57
2022/07/12 10:01:39;;;;;;;;;;;;;;;16.08;56.56;100943.47;4956224;28;1069;-59
2022/07/12 10:04:08;;;;;;;;;;;;;;;16.08;56.43;100951.72;4942227;29;1195;-57
2022/07/12 10:06:34;;;;;;;;;;;;;;;16.07;56.72;100950.06;4959135;28;1199;-61
2022/07/12 10:09:03;;;;;;;;;;;;;;;16.05;56.75;100941.28;4964813;28;1303;-61
2022/07/12 10:11:56;;;;;;;;;;;;;;;16.07;56.37;100941.84;4915315;29;1383;-58
2022/07/12 10:14:41;;;;;;;;;;;;;;;16.03;56.62;100937.13;4954982;29;1154;-61
2022/07/12 10:17:28;;;;;;;;;;;;;;;16.05;56.68;100930.31;4938004;28;1024;-64
2022/07/12 10:20:14;;;;;;;;;;;;;;;16.07;56.65;100932.78;4965327;28;1910;-58
2022/07/12 10:22:50;;;;;;;;;;;;;;;16.04;56.67;100934.13;4943527;29;1445;-58
2022/07/12 10:25:35;;;;;;;;;;;;;;;16.02;56.73;100925.34;4953858;28;1314;-58
2022/07/12 10:28:54;;;;;;;;;;;;;;;16.02;56.60;100936.31;4960517;28;1105;-57
2022/07/12 10:31:30;;;;;;;;;;;;;;;16.03;56.80;100932.50;4962091;28;1023;-57
2022/07/12 10:34:35;;;;;;;;;;;;;;;16.06;56.41;100925.63;4959879;28;982;-60
2022/07/12 10:37:05;;;;;;;;;;;;;;;16.85;56.13;100925.66;4952330;29;1316;-58
2022/07/12 10:39:37;;;;;;;;;;;;;;;17.12;56.46;100921.88;4959251;28;1993;-61
2022/07/12 10:42:21;;;;;;;;;;;;;;;16.67;57.48;100925.06;4943434;28;1031;-58
2022/07/12 10:44:51;;;;;;;;;;;;;;;16.57;57.20;100925.03;4959831;28;1427;-61
2022/07/12 10:47:19;;;;;;;;;;;;;;;16.49;57.12;100917.31;4937619;29;1263;-58
2022/07/12 10:49:48;;;;;;;;;;;;;;;16.48;56.95;100918.41;4960355;28;1079;-62
2022/07/12 10:52:17;;;;;;;;;;;;;;;16.40;57.16;100906.84;4960234;28;1244;-60
2022/07/12 10:54:42;;;;;;;;;;;;;;;16.40;56.97;100908.78;4960314;28;1015;-58
2022/07/12 10:57:09;;;;;;;;;;;;;;;16.36;56.90;100913.16;4960280;28;1081;-58
2022/07/12 10:59:35;;;;;;;;;;;;;;;16.35;56.93;100904.09;4960253;29;1907;-60
2022/07/12 11:02:01;;;;;;;;;;;;;;;16.33;56.65;100898.06;4970626;28;1121;-62
2022/07/12 11:04:27;;;;;;;;;;;;;;;16.30;56.68;100901.34;4960700;28;923;-60
2022/07/12 11:06:55;;;;;;;;;;;;;;;16.31;56.93;100900.22;4959962;28;951;-57
2022/07/12 11:09:20;;;;;;;;;;;;;;;16.30;56.80;100904.09;4966629;28;1149;-59
2022/07/12 11:11:48;;;;;;;;;;;;;;;16.29;56.69;100893.38;4967308;28;1113;-62
2022/07/12 11:14:40;;;;;;;;;;;;;;;16.29;56.48;100898.88;4959894;28;998;-61
2022/07/12 11:17:05;;;;;;;;;;;;;;;16.26;56.47;100897.47;4952594;28;1896;-64
2022/07/12 11:19:31;;;;;;;;;;;;;;;16.19;56.60;100896.91;4959970;29;1975;-61
2022/07/12 11:21:57;;;;;;;;;;;;;;;16.25;56.31;100898.56;4968444;28;1228;-60
2022/07/12 11:24:29;;;;;;;;;;;;;;;16.22;56.36;100904.59;4962655;28;1125;-60
2022/07/12 11:26:54;;;;;;;;;;;;;;;16.20;56.64;100895.78;4959528;28;1129;-61
2022/07/12 11:29:20;;;;;;;;;;;;;;;16.22;56.50;100901.84;4971723;28;1303;-59
2022/07/12 11:31:45;;;;;;;;;;;;;;;16.19;56.57;100902.41;4959266;28;1205;-55
2022/07/12 11:34:20;;;;;;;;;;;;;;;16.17;56.54;100897.19;4959347;29;991;-62
2022/07/12 11:36:46;;;;;;;;;;;;;;;16.20;56.62;100904.03;4959169;28;1169;-57
2022/07/12 11:39:11;;;;;;;;;;;;;;;16.13;56.68;100898.81;4941624;29;1910;-60
2022/07/12 11:41:37;;;;;;;;;;;;;;;16.15;56.53;100904.84;4953533;29;1138;-60
2022/07/12 11:44:02;;;;;;;;;;;;;;;16.12;56.70;100901.78;4959474;28;1137;-61
2022/07/12 11:46:28;;;;;;;;;;;;;;;16.13;56.58;100906.19;4966655;28;1221;-62
2022/07/12 11:48:53;;;;;;;;;;;;;;;16.17;56.43;100908.16;4964635;28;1189;-59
2022/07/12 11:51:18;;;;;;;;;;;;;;;16.11;56.54;100911.13;4959182;29;1010;-61
2022/07/12 11:53:44;;;;;;;;;;;;;;;16.08;56.64;100916.06;4941572;28;1015;-58
2022/07/12 11:56:10;;;;;;;;;;;;;;;16.11;56.62;100911.94;4960204;28;1273;-57
2022/07/12 11:58:38;;;;;;;;;;;;;;;16.12;56.74;100907.28;4958717;29;1054;-60
2022/07/12 12:01:03;;;;;;;;;;;;;;;16.12;56.62;100912.75;4960562;28;1906;-60
2022/07/12 12:03:30;;;;;;;;;;;;;;;16.05;56.93;100913.84;4958194;28;1067;-65
2022/07/12 12:05:56;;;;;;;;;;;;;;;16.10;56.72;100909.47;4958086;28;1177;-61
2022/07/12 12:08:22;;;;;;;;;;;;;;;16.10;56.79;100912.22;4958530;29;975;-58
2022/07/12 12:10:55;;;;;;;;;;;;;;;16.05;56.71;100900.13;4959942;28;1142;-56
2022/07/12 12:13:21;;;;;;;;;;;;;;;16.03;56.72;100910.56;4961439;28;1173;-60
2022/07/12 12:15:53;;;;;;;;;;;;;;;17.05;56.17;100906.47;4957991;29;1023;-60
2022/07/12 12:18:28;;;;;;;;;;;;;;;17.03;56.95;100905.13;4958498;28;1042;-58
2022/07/12 12:20:57;;;;;;;;;;;;;;;16.67;57.60;100903.09;4958553;28;1965;-58
2022/07/12 12:23:22;;;;;;;;;;;;;;;16.55;57.38;100899.75;4958767;29;1113;-59
2022/07/12 12:25:48;;;;;;;;;;;;;;;16.51;57.50;100901.38;4958472;28;1007;-60
2022/07/12 12:28:13;;;;;;;;;;;;;;;16.42;57.51;100901.94;4958337;29;1208;-58
2022/07/12 12:30:52;;;;;;;;;;;;;;;16.37;57.45;100899.16;4963313;28;1125;-59
2022/07/12 12:33:36;;;;;;;;;;;;;;;16.32;57.10;100896.41;4958247;28;1019;-58
2022/07/12 12:36:12;;;;;;;;;;;;;;;16.31;57.09;100889.25;4952782;28;1192;-60
2022/07/12 12:38:37;;;;;;;;;;;;;;;16.30;56.91;100887.63;4957963;28;1232;-60
2022/07/12 12:41:03;;;;;;;;;;;;;;;16.32;56.69;100887.34;4958372;28;1975;-60
2022/07/12 12:43:28;;;;;;;;;;;;;;;16.27;56.95;100884.56;4940656;29;1223;-58
2022/07/12 12:45:54;;;;;;;;;;;;;;;16.23;56.81;100882.38;4958136;28;1314;-57
2022/07/12 12:48:21;;;;;;;;;;;;;;;16.25;56.93;100890.34;4958340;29;995;-57
2022/07/12 12:50:47;;;;;;;;;;;;;;;16.24;56.64;100886.78;4958006;28;1161;-58
2022/07/12 12:53:12;;;;;;;;;;;;;;;16.22;56.72;100888.13;4957465;29;956;-56
2022/07/12 12:55:38;;;;;;;;;;;;;;;16.21;56.75;100884.56;4958286;28;1177;-62
2022/07/12 12:58:03;;;;;;;;;;;;;;;16.22;56.76;100882.66;4963746;28;975;-58